sensor_id;sensor_type;location;lat;lon;timestamp;P1;durP1;ratioP1;P2;durP2;ratioP2
64842;SDS011;51310;52.198;5.422;2023-02-19T00:01:26;27.13;;;9.23;;
64842;SDS011;51310;52.198;5.422;2023-02-19T00:03:59;28.60;;;7.47;;
64842;SDS011;51310;52.198;5.422;2023-02-19T00:06:37;21.73;;;7.00;;
64842;SDS011;51310;52.198;5.422;2023-02-19T00:09:03;22.25;;;7.68;;
64842;SDS011;51310;52.198;5.422;2023-02-19T00:11:29;19.52;;;7.57;;
64842;SDS011;51310;52.198;5.422;2023-02-19T00:13:57;34.70;;;8.07;;
64842;SDS011;51310;52.198;5.422;2023-02-19T00:16:27;25.63;;;7.38;;
64842;SDS011;51310;52.198;5.422;2023-02-19T00:19:03;27.50;;;8.45;;
64842;SDS011;51310;52.198;5.422;2023-02-19T00:21:32;22.90;;;7.80;;
64842;SDS011;51310;52.198;5.422;2023-02-19T00:23:59;26.80;;;7.78;;
64842;SDS011;51310;52.198;5.422;2023-02-19T00:26:28;25.67;;;6.97;;
64842;SDS011;51310;52.198;5.422;2023-02-19T00:28:54;25.52;;;7.13;;
64842;SDS011;51310;52.198;5.422;2023-02-19T00:31:28;26.05;;;6.60;;
64842;SDS011;51310;52.198;5.422;2023-02-19T00:33:58;22.63;;;7.32;;
64842;SDS011;51310;52.198;5.422;2023-02-19T00:36:26;20.47;;;7.10;;
64842;SDS011;51310;52.198;5.422;2023-02-19T00:38:54;20.88;;;7.10;;
64842;SDS011;51310;52.198;5.422;2023-02-19T00:41:21;19.70;;;7.50;;
64842;SDS011;51310;52.198;5.422;2023-02-19T00:43:52;18.45;;;6.70;;
64842;SDS011;51310;52.198;5.422;2023-02-19T00:46:31;22.23;;;7.50;;
64842;SDS011;51310;52.198;5.422;2023-02-19T00:48:59;27.13;;;7.55;;
64842;SDS011;51310;52.198;5.422;2023-02-19T00:51:26;23.75;;;7.13;;
64842;SDS011;51310;52.198;5.422;2023-02-19T00:53:54;19.08;;;7.05;;
64842;SDS011;51310;52.198;5.422;2023-02-19T00:56:20;21.63;;;7.90;;
64842;SDS011;51310;52.198;5.422;2023-02-19T00:58:47;27.48;;;7.05;;
64842;SDS011;51310;52.198;5.422;2023-02-19T01:01:14;24.27;;;7.38;;
64842;SDS011;51310;52.198;5.422;2023-02-19T01:03:41;22.33;;;7.78;;
64842;SDS011;51310;52.198;5.422;2023-02-19T01:06:08;22.38;;;7.95;;
64842;SDS011;51310;52.198;5.422;2023-02-19T01:08:37;23.00;;;7.80;;
64842;SDS011;51310;52.198;5.422;2023-02-19T01:11:04;28.90;;;7.05;;
64842;SDS011;51310;52.198;5.422;2023-02-19T01:13:32;28.42;;;8.18;;
64842;SDS011;51310;52.198;5.422;2023-02-19T01:16:17;24.63;;;7.93;;
64842;SDS011;51310;52.198;5.422;2023-02-19T01:18:46;24.02;;;7.47;;
64842;SDS011;51310;52.198;5.422;2023-02-19T01:21:16;25.73;;;7.75;;
64842;SDS011;51310;52.198;5.422;2023-02-19T01:23:45;22.25;;;7.93;;
64842;SDS011;51310;52.198;5.422;2023-02-19T01:26:14;25.02;;;9.15;;
64842;SDS011;51310;52.198;5.422;2023-02-19T01:28:43;31.23;;;8.25;;
64842;SDS011;51310;52.198;5.422;2023-02-19T01:31:11;26.63;;;8.32;;
64842;SDS011;51310;52.198;5.422;2023-02-19T01:33:43;26.33;;;8.45;;
64842;SDS011;51310;52.198;5.422;2023-02-19T01:36:11;22.92;;;9.48;;
64842;SDS011;51310;52.198;5.422;2023-02-19T01:38:37;27.63;;;8.52;;
64842;SDS011;51310;52.198;5.422;2023-02-19T01:41:04;26.13;;;9.05;;
64842;SDS011;51310;52.198;5.422;2023-02-19T01:43:33;21.20;;;8.93;;
64842;SDS011;51310;52.198;5.422;2023-02-19T01:46:18;22.65;;;8.77;;
64842;SDS011;51310;52.198;5.422;2023-02-19T01:48:44;25.27;;;9.27;;
64842;SDS011;51310;52.198;5.422;2023-02-19T01:51:15;19.08;;;7.82;;
64842;SDS011;51310;52.198;5.422;2023-02-19T01:53:44;18.42;;;8.85;;
64842;SDS011;51310;52.198;5.422;2023-02-19T01:56:18;21.42;;;8.80;;
64842;SDS011;51310;52.198;5.422;2023-02-19T01:58:47;21.23;;;7.88;;
64842;SDS011;51310;52.198;5.422;2023-02-19T02:01:13;20.30;;;8.65;;
64842;SDS011;51310;52.198;5.422;2023-02-19T02:03:39;23.33;;;8.40;;
64842;SDS011;51310;52.198;5.422;2023-02-19T02:06:25;21.95;;;8.27;;
64842;SDS011;51310;52.198;5.422;2023-02-19T02:08:55;23.13;;;7.65;;
64842;SDS011;51310;52.198;5.422;2023-02-19T02:11:43;26.57;;;8.47;;
64842;SDS011;51310;52.198;5.422;2023-02-19T02:14:19;21.30;;;8.80;;
64842;SDS011;51310;52.198;5.422;2023-02-19T02:16:56;22.45;;;8.45;;
64842;SDS011;51310;52.198;5.422;2023-02-19T02:28:27;21.70;;;8.60;;
64842;SDS011;51310;52.198;5.422;2023-02-19T02:31:34;22.90;;;8.93;;
64842;SDS011;51310;52.198;5.422;2023-02-19T02:34:24;19.17;;;8.40;;
64842;SDS011;51310;52.198;5.422;2023-02-19T02:37:09;19.17;;;7.70;;
64842;SDS011;51310;52.198;5.422;2023-02-19T02:39:38;24.60;;;8.40;;
64842;SDS011;51310;52.198;5.422;2023-02-19T02:42:08;24.90;;;7.75;;
64842;SDS011;51310;52.198;5.422;2023-02-19T02:44:55;20.35;;;7.65;;
64842;SDS011;51310;52.198;5.422;2023-02-19T02:47:59;19.60;;;6.80;;
64842;SDS011;51310;52.198;5.422;2023-02-19T02:57:06;17.90;;;6.87;;
64842;SDS011;51310;52.198;5.422;2023-02-19T02:59:38;18.10;;;6.47;;
64842;SDS011;51310;52.198;5.422;2023-02-19T03:02:10;18.60;;;5.82;;
64842;SDS011;51310;52.198;5.422;2023-02-19T03:10:33;15.32;;;4.88;;
64842;SDS011;51310;52.198;5.422;2023-02-19T03:13:15;16.15;;;3.88;;
64842;SDS011;51310;52.198;5.422;2023-02-19T03:16:13;16.90;;;5.20;;
64842;SDS011;51310;52.198;5.422;2023-02-19T03:19:03;9.73;;;4.13;;
64842;SDS011;51310;52.198;5.422;2023-02-19T03:21:43;12.70;;;4.32;;
64842;SDS011;51310;52.198;5.422;2023-02-19T03:24:16;10.68;;;4.05;;
64842;SDS011;51310;52.198;5.422;2023-02-19T03:27:05;18.58;;;5.03;;
64842;SDS011;51310;52.198;5.422;2023-02-19T03:29:34;12.38;;;4.38;;
64842;SDS011;51310;52.198;5.422;2023-02-19T03:32:07;10.80;;;4.57;;
64842;SDS011;51310;52.198;5.422;2023-02-19T03:34:48;15.63;;;5.23;;
64842;SDS011;51310;52.198;5.422;2023-02-19T03:37:34;15.77;;;5.40;;
64842;SDS011;51310;52.198;5.422;2023-02-19T03:40:14;16.10;;;4.75;;
64842;SDS011;51310;52.198;5.422;2023-02-19T03:42:42;14.07;;;5.70;;
64842;SDS011;51310;52.198;5.422;2023-02-19T03:45:26;21.75;;;5.85;;
64842;SDS011;51310;52.198;5.422;2023-02-19T03:48:20;14.73;;;5.32;;
64842;SDS011;51310;52.198;5.422;2023-02-19T03:51:04;15.05;;;5.13;;
64842;SDS011;51310;52.198;5.422;2023-02-19T04:02:15;17.02;;;5.93;;
64842;SDS011;51310;52.198;5.422;2023-02-19T04:07:40;17.42;;;6.35;;
64842;SDS011;51310;52.198;5.422;2023-02-19T04:10:11;15.90;;;5.47;;
64842;SDS011;51310;52.198;5.422;2023-02-19T04:12:39;13.20;;;5.20;;
64842;SDS011;51310;52.198;5.422;2023-02-19T04:15:11;18.40;;;5.95;;
64842;SDS011;51310;52.198;5.422;2023-02-19T04:20:45;16.50;;;5.80;;
64842;SDS011;51310;52.198;5.422;2023-02-19T04:23:12;16.40;;;5.70;;
64842;SDS011;51310;52.198;5.422;2023-02-19T04:25:44;13.40;;;5.15;;
64842;SDS011;51310;52.198;5.422;2023-02-19T04:28:14;12.70;;;5.80;;
64842;SDS011;51310;52.198;5.422;2023-02-19T04:30:42;13.98;;;5.97;;
64842;SDS011;51310;52.198;5.422;2023-02-19T04:33:08;15.73;;;6.32;;
64842;SDS011;51310;52.198;5.422;2023-02-19T04:35:34;14.80;;;5.82;;
64842;SDS011;51310;52.198;5.422;2023-02-19T04:38:00;17.33;;;5.63;;
64842;SDS011;51310;52.198;5.422;2023-02-19T04:40:26;11.40;;;5.67;;
64842;SDS011;51310;52.198;5.422;2023-02-19T04:42:51;21.07;;;6.40;;
64842;SDS011;51310;52.198;5.422;2023-02-19T04:45:17;20.03;;;6.13;;
64842;SDS011;51310;52.198;5.422;2023-02-19T04:47:43;23.23;;;6.53;;
64842;SDS011;51310;52.198;5.422;2023-02-19T04:50:08;18.17;;;6.27;;
64842;SDS011;51310;52.198;5.422;2023-02-19T04:52:34;18.92;;;6.63;;
64842;SDS011;51310;52.198;5.422;2023-02-19T04:55:00;23.40;;;6.85;;
64842;SDS011;51310;52.198;5.422;2023-02-19T04:57:26;14.82;;;5.70;;
64842;SDS011;51310;52.198;5.422;2023-02-19T04:59:52;21.42;;;6.88;;
64842;SDS011;51310;52.198;5.422;2023-02-19T05:02:17;18.63;;;6.05;;
64842;SDS011;51310;52.198;5.422;2023-02-19T05:04:43;21.70;;;6.33;;
64842;SDS011;51310;52.198;5.422;2023-02-19T05:07:09;21.10;;;6.30;;
64842;SDS011;51310;52.198;5.422;2023-02-19T05:09:34;16.08;;;5.38;;
64842;SDS011;51310;52.198;5.422;2023-02-19T05:12:00;15.35;;;5.47;;
64842;SDS011;51310;52.198;5.422;2023-02-19T05:14:26;17.67;;;6.32;;
64842;SDS011;51310;52.198;5.422;2023-02-19T05:16:51;14.75;;;5.80;;
64842;SDS011;51310;52.198;5.422;2023-02-19T05:19:17;16.90;;;5.85;;
64842;SDS011;51310;52.198;5.422;2023-02-19T05:21:42;20.13;;;6.50;;
64842;SDS011;51310;52.198;5.422;2023-02-19T05:24:08;17.83;;;5.67;;
64842;SDS011;51310;52.198;5.422;2023-02-19T05:26:34;28.35;;;6.93;;
64842;SDS011;51310;52.198;5.422;2023-02-19T05:29:00;17.17;;;6.00;;
64842;SDS011;51310;52.198;5.422;2023-02-19T05:31:27;14.00;;;5.47;;
64842;SDS011;51310;52.198;5.422;2023-02-19T05:33:56;13.75;;;4.85;;
64842;SDS011;51310;52.198;5.422;2023-02-19T05:36:21;15.10;;;5.95;;
64842;SDS011;51310;52.198;5.422;2023-02-19T05:38:51;17.30;;;5.40;;
64842;SDS011;51310;52.198;5.422;2023-02-19T05:41:22;16.27;;;5.50;;
64842;SDS011;51310;52.198;5.422;2023-02-19T05:43:54;14.02;;;6.47;;
64842;SDS011;51310;52.198;5.422;2023-02-19T05:46:22;18.50;;;5.45;;
64842;SDS011;51310;52.198;5.422;2023-02-19T05:48:52;18.80;;;6.15;;
64842;SDS011;51310;52.198;5.422;2023-02-19T05:51:19;18.85;;;7.00;;
64842;SDS011;51310;52.198;5.422;2023-02-19T05:53:48;20.00;;;6.78;;
64842;SDS011;51310;52.198;5.422;2023-02-19T05:59:05;27.83;;;7.80;;
64842;SDS011;51310;52.198;5.422;2023-02-19T06:01:39;20.33;;;8.07;;
64842;SDS011;51310;52.198;5.422;2023-02-19T06:04:04;24.53;;;9.07;;
64842;SDS011;51310;52.198;5.422;2023-02-19T06:06:30;21.60;;;9.23;;
64842;SDS011;51310;52.198;5.422;2023-02-19T06:08:56;23.77;;;9.27;;
64842;SDS011;51310;52.198;5.422;2023-02-19T06:11:22;27.13;;;9.77;;
64842;SDS011;51310;52.198;5.422;2023-02-19T06:13:49;25.92;;;9.50;;
64842;SDS011;51310;52.198;5.422;2023-02-19T06:16:15;28.25;;;10.32;;
64842;SDS011;51310;52.198;5.422;2023-02-19T06:18:42;27.37;;;10.90;;
64842;SDS011;51310;52.198;5.422;2023-02-19T06:21:10;27.13;;;11.40;;
64842;SDS011;51310;52.198;5.422;2023-02-19T06:23:36;24.75;;;11.70;;
64842;SDS011;51310;52.198;5.422;2023-02-19T06:26:06;28.25;;;12.48;;
64842;SDS011;51310;52.198;5.422;2023-02-19T06:28:44;31.20;;;12.65;;
64842;SDS011;51310;52.198;5.422;2023-02-19T06:31:11;28.40;;;13.77;;
64842;SDS011;51310;52.198;5.422;2023-02-19T06:33:38;23.33;;;12.13;;
64842;SDS011;51310;52.198;5.422;2023-02-19T06:36:05;27.67;;;13.73;;
64842;SDS011;51310;52.198;5.422;2023-02-19T06:38:36;26.33;;;13.50;;
64842;SDS011;51310;52.198;5.422;2023-02-19T06:41:03;27.65;;;14.43;;
64842;SDS011;51310;52.198;5.422;2023-02-19T06:43:30;29.60;;;13.90;;
64842;SDS011;51310;52.198;5.422;2023-02-19T06:45:58;32.05;;;14.02;;
64842;SDS011;51310;52.198;5.422;2023-02-19T06:48:28;33.27;;;14.70;;
64842;SDS011;51310;52.198;5.422;2023-02-19T06:50:55;37.33;;;16.13;;
64842;SDS011;51310;52.198;5.422;2023-02-19T06:53:21;35.72;;;15.40;;
64842;SDS011;51310;52.198;5.422;2023-02-19T06:55:54;31.52;;;15.65;;
64842;SDS011;51310;52.198;5.422;2023-02-19T06:58:32;36.85;;;16.95;;
64842;SDS011;51310;52.198;5.422;2023-02-19T07:00:58;33.17;;;16.13;;
64842;SDS011;51310;52.198;5.422;2023-02-19T07:03:24;35.47;;;16.25;;
64842;SDS011;51310;52.198;5.422;2023-02-19T07:05:50;36.50;;;17.42;;
64842;SDS011;51310;52.198;5.422;2023-02-19T07:08:16;37.60;;;17.20;;
64842;SDS011;51310;52.198;5.422;2023-02-19T07:10:43;33.00;;;15.25;;
64842;SDS011;51310;52.198;5.422;2023-02-19T07:13:09;34.25;;;16.10;;
64842;SDS011;51310;52.198;5.422;2023-02-19T07:15:35;28.80;;;14.77;;
64842;SDS011;51310;52.198;5.422;2023-02-19T07:18:01;36.22;;;15.60;;
64842;SDS011;51310;52.198;5.422;2023-02-19T07:20:29;29.98;;;14.02;;
64842;SDS011;51310;52.198;5.422;2023-02-19T07:22:55;30.23;;;14.63;;
64842;SDS011;51310;52.198;5.422;2023-02-19T07:25:21;29.70;;;13.80;;
64842;SDS011;51310;52.198;5.422;2023-02-19T07:27:47;27.57;;;14.90;;
64842;SDS011;51310;52.198;5.422;2023-02-19T07:30:12;32.25;;;16.13;;
64842;SDS011;51310;52.198;5.422;2023-02-19T07:32:41;35.83;;;17.10;;
64842;SDS011;51310;52.198;5.422;2023-02-19T07:35:09;32.53;;;15.88;;
64842;SDS011;51310;52.198;5.422;2023-02-19T07:37:35;43.70;;;16.40;;
64842;SDS011;51310;52.198;5.422;2023-02-19T07:40:01;39.20;;;16.83;;
64842;SDS011;51310;52.198;5.422;2023-02-19T07:42:27;40.13;;;17.25;;
64842;SDS011;51310;52.198;5.422;2023-02-19T07:44:52;37.53;;;15.60;;
64842;SDS011;51310;52.198;5.422;2023-02-19T07:47:18;37.40;;;15.73;;
64842;SDS011;51310;52.198;5.422;2023-02-19T07:49:44;31.17;;;14.03;;
64842;SDS011;51310;52.198;5.422;2023-02-19T07:52:09;27.67;;;14.97;;
64842;SDS011;51310;52.198;5.422;2023-02-19T07:54:35;35.27;;;14.30;;
64842;SDS011;51310;52.198;5.422;2023-02-19T07:57:01;28.00;;;14.53;;
64842;SDS011;51310;52.198;5.422;2023-02-19T07:59:26;26.17;;;12.33;;
64842;SDS011;51310;52.198;5.422;2023-02-19T08:01:52;28.20;;;12.48;;
64842;SDS011;51310;52.198;5.422;2023-02-19T08:04:36;27.40;;;12.25;;
64842;SDS011;51310;52.198;5.422;2023-02-19T08:07:02;28.85;;;12.13;;
64842;SDS011;51310;52.198;5.422;2023-02-19T08:09:29;27.13;;;12.60;;
64842;SDS011;51310;52.198;5.422;2023-02-19T08:11:55;32.03;;;12.90;;
64842;SDS011;51310;52.198;5.422;2023-02-19T08:14:39;28.17;;;13.27;;
64842;SDS011;51310;52.198;5.422;2023-02-19T08:17:05;26.17;;;11.90;;
64842;SDS011;51310;52.198;5.422;2023-02-19T08:19:31;31.70;;;12.38;;
64842;SDS011;51310;52.198;5.422;2023-02-19T08:21:56;28.73;;;12.15;;
64842;SDS011;51310;52.198;5.422;2023-02-19T08:24:22;25.48;;;12.15;;
64842;SDS011;51310;52.198;5.422;2023-02-19T08:26:48;23.55;;;13.68;;
64842;SDS011;51310;52.198;5.422;2023-02-19T08:29:14;31.35;;;13.00;;
64842;SDS011;51310;52.198;5.422;2023-02-19T08:31:39;21.98;;;12.10;;
64842;SDS011;51310;52.198;5.422;2023-02-19T08:34:05;28.90;;;11.43;;
64842;SDS011;51310;52.198;5.422;2023-02-19T08:36:31;24.38;;;11.63;;
64842;SDS011;51310;52.198;5.422;2023-02-19T08:38:56;25.17;;;12.05;;
64842;SDS011;51310;52.198;5.422;2023-02-19T08:41:22;24.13;;;10.77;;
64842;SDS011;51310;52.198;5.422;2023-02-19T08:43:48;22.20;;;10.10;;
64842;SDS011;51310;52.198;5.422;2023-02-19T08:46:13;23.83;;;10.40;;
64842;SDS011;51310;52.198;5.422;2023-02-19T08:48:39;21.00;;;11.73;;
64842;SDS011;51310;52.198;5.422;2023-02-19T08:51:07;26.88;;;12.05;;
64842;SDS011;51310;52.198;5.422;2023-02-19T08:53:35;32.85;;;11.45;;
64842;SDS011;51310;52.198;5.422;2023-02-19T08:56:09;20.10;;;10.18;;
64842;SDS011;51310;52.198;5.422;2023-02-19T08:58:38;24.50;;;10.52;;
64842;SDS011;51310;52.198;5.422;2023-02-19T09:01:13;25.50;;;10.35;;
64842;SDS011;51310;52.198;5.422;2023-02-19T09:03:45;30.17;;;11.43;;
64842;SDS011;51310;52.198;5.422;2023-02-19T09:06:15;26.73;;;10.68;;
64842;SDS011;51310;52.198;5.422;2023-02-19T09:08:44;24.13;;;9.60;;
64842;SDS011;51310;52.198;5.422;2023-02-19T09:11:10;21.83;;;9.52;;
64842;SDS011;51310;52.198;5.422;2023-02-19T09:13:36;22.20;;;10.32;;
64842;SDS011;51310;52.198;5.422;2023-02-19T09:16:02;27.35;;;10.10;;
64842;SDS011;51310;52.198;5.422;2023-02-19T09:18:29;20.98;;;9.90;;
64842;SDS011;51310;52.198;5.422;2023-02-19T09:20:58;25.25;;;11.90;;
64842;SDS011;51310;52.198;5.422;2023-02-19T09:23:29;31.90;;;11.60;;
64842;SDS011;51310;52.198;5.422;2023-02-19T09:25:59;22.60;;;9.95;;
64842;SDS011;51310;52.198;5.422;2023-02-19T09:28:25;20.90;;;9.68;;
64842;SDS011;51310;52.198;5.422;2023-02-19T09:30:52;26.20;;;9.13;;
64842;SDS011;51310;52.198;5.422;2023-02-19T09:33:18;9.15;;;4.50;;
64842;SDS011;51310;52.198;5.422;2023-02-19T09:35:43;4.63;;;2.80;;
64842;SDS011;51310;52.198;5.422;2023-02-19T09:38:09;13.63;;;3.15;;
64842;SDS011;51310;52.198;5.422;2023-02-19T09:40:35;6.05;;;2.92;;
64842;SDS011;51310;52.198;5.422;2023-02-19T09:43:11;5.18;;;2.20;;
64842;SDS011;51310;52.198;5.422;2023-02-19T09:45:45;3.47;;;1.80;;
64842;SDS011;51310;52.198;5.422;2023-02-19T09:48:12;3.80;;;2.03;;
64842;SDS011;51310;52.198;5.422;2023-02-19T09:50:41;6.57;;;2.10;;
64842;SDS011;51310;52.198;5.422;2023-02-19T09:53:23;6.05;;;2.20;;
64842;SDS011;51310;52.198;5.422;2023-02-19T09:56:00;4.57;;;2.13;;
64842;SDS011;51310;52.198;5.422;2023-02-19T09:58:27;4.53;;;2.20;;
64842;SDS011;51310;52.198;5.422;2023-02-19T10:01:00;3.70;;;1.80;;
64842;SDS011;51310;52.198;5.422;2023-02-19T10:03:30;4.60;;;1.95;;
64842;SDS011;51310;52.198;5.422;2023-02-19T10:06:01;8.23;;;2.53;;
64842;SDS011;51310;52.198;5.422;2023-02-19T10:08:32;6.90;;;2.47;;
64842;SDS011;51310;52.198;5.422;2023-02-19T10:11:02;7.57;;;2.35;;
64842;SDS011;51310;52.198;5.422;2023-02-19T10:13:31;5.63;;;2.83;;
64842;SDS011;51310;52.198;5.422;2023-02-19T10:16:06;6.95;;;2.97;;
64842;SDS011;51310;52.198;5.422;2023-02-19T10:18:40;11.60;;;2.60;;
64842;SDS011;51310;52.198;5.422;2023-02-19T10:21:10;5.73;;;2.80;;
64842;SDS011;51310;52.198;5.422;2023-02-19T10:23:43;4.10;;;2.10;;
64842;SDS011;51310;52.198;5.422;2023-02-19T10:26:12;5.25;;;2.35;;
64842;SDS011;51310;52.198;5.422;2023-02-19T10:28:38;5.28;;;2.50;;
64842;SDS011;51310;52.198;5.422;2023-02-19T10:31:06;4.70;;;2.50;;
64842;SDS011;51310;52.198;5.422;2023-02-19T10:33:52;4.78;;;2.25;;
64842;SDS011;51310;52.198;5.422;2023-02-19T10:36:25;6.20;;;2.50;;
64842;SDS011;51310;52.198;5.422;2023-02-19T10:38:57;6.57;;;2.70;;
64842;SDS011;51310;52.198;5.422;2023-02-19T10:41:26;6.55;;;2.58;;
64842;SDS011;51310;52.198;5.422;2023-02-19T10:44:04;7.20;;;2.90;;
64842;SDS011;51310;52.198;5.422;2023-02-19T10:46:44;8.52;;;3.03;;
64842;SDS011;51310;52.198;5.422;2023-02-19T10:51:54;7.90;;;3.10;;
64842;SDS011;51310;52.198;5.422;2023-02-19T10:54:27;4.47;;;2.47;;
64842;SDS011;51310;52.198;5.422;2023-02-19T10:59:54;2.92;;;1.90;;
64842;SDS011;51310;52.198;5.422;2023-02-19T11:02:26;3.67;;;2.00;;
64842;SDS011;51310;52.198;5.422;2023-02-19T11:07:43;5.18;;;1.38;;
64842;SDS011;51310;52.198;5.422;2023-02-19T11:12:54;3.17;;;1.50;;
64842;SDS011;51310;52.198;5.422;2023-02-19T11:15:28;2.83;;;1.38;;
64842;SDS011;51310;52.198;5.422;2023-02-19T11:20:53;5.57;;;1.73;;
64842;SDS011;51310;52.198;5.422;2023-02-19T11:23:25;3.37;;;1.43;;
64842;SDS011;51310;52.198;5.422;2023-02-19T11:26:00;3.13;;;1.75;;
64842;SDS011;51310;52.198;5.422;2023-02-19T11:28:40;4.18;;;2.53;;
64842;SDS011;51310;52.198;5.422;2023-02-19T11:31:14;5.65;;;2.83;;
64842;SDS011;51310;52.198;5.422;2023-02-19T11:34:28;5.32;;;2.80;;
64842;SDS011;51310;52.198;5.422;2023-02-19T11:36:37;6.47;;;2.05;;
64842;SDS011;51310;52.198;5.422;2023-02-19T11:50:47;5.15;;;2.20;;
64842;SDS011;51310;52.198;5.422;2023-02-19T11:57:08;5.60;;;2.50;;
64842;SDS011;51310;52.198;5.422;2023-02-19T11:59:58;7.15;;;3.20;;
64842;SDS011;51310;52.198;5.422;2023-02-19T12:11:32;3.85;;;1.85;;
64842;SDS011;51310;52.198;5.422;2023-02-19T12:26:07;3.30;;;1.75;;
64842;SDS011;51310;52.198;5.422;2023-02-19T12:34:31;4.15;;;2.17;;
64842;SDS011;51310;52.198;5.422;2023-02-19T12:43:09;4.53;;;2.30;;
64842;SDS011;51310;52.198;5.422;2023-02-19T12:45:55;5.22;;;2.08;;
64842;SDS011;51310;52.198;5.422;2023-02-19T12:56:38;5.78;;;2.78;;
64842;SDS011;51310;52.198;5.422;2023-02-19T12:59:14;4.75;;;2.20;;
64842;SDS011;51310;52.198;5.422;2023-02-19T13:02:23;6.30;;;2.40;;
64842;SDS011;51310;52.198;5.422;2023-02-19T13:10:57;6.03;;;2.75;;
64842;SDS011;51310;52.198;5.422;2023-02-19T13:14:19;4.22;;;1.98;;
64842;SDS011;51310;52.198;5.422;2023-02-19T13:16:38;3.33;;;1.85;;
64842;SDS011;51310;52.198;5.422;2023-02-19T13:19:09;6.10;;;1.63;;
64842;SDS011;51310;52.198;5.422;2023-02-19T13:21:39;3.15;;;1.50;;
64842;SDS011;51310;52.198;5.422;2023-02-19T13:24:32;3.25;;;1.60;;
64842;SDS011;51310;52.198;5.422;2023-02-19T13:38:18;3.10;;;1.30;;
64842;SDS011;51310;52.198;5.422;2023-02-19T13:40:57;3.20;;;1.33;;
64842;SDS011;51310;52.198;5.422;2023-02-19T13:43:28;3.93;;;1.40;;
64842;SDS011;51310;52.198;5.422;2023-02-19T13:46:00;2.60;;;1.40;;
64842;SDS011;51310;52.198;5.422;2023-02-19T13:48:33;3.45;;;1.17;;
64842;SDS011;51310;52.198;5.422;2023-02-19T13:59:01;2.08;;;1.08;;
64842;SDS011;51310;52.198;5.422;2023-02-19T14:04:57;2.95;;;0.80;;
64842;SDS011;51310;52.198;5.422;2023-02-19T14:10:00;0.70;;;0.50;;
64842;SDS011;51310;52.198;5.422;2023-02-19T14:12:32;1.45;;;0.50;;
64842;SDS011;51310;52.198;5.422;2023-02-19T14:21:24;0.80;;;0.40;;
64842;SDS011;51310;52.198;5.422;2023-02-19T14:24:00;1.55;;;0.63;;
64842;SDS011;51310;52.198;5.422;2023-02-19T14:26:28;1.75;;;0.40;;
64842;SDS011;51310;52.198;5.422;2023-02-19T14:28:57;1.10;;;0.50;;
64842;SDS011;51310;52.198;5.422;2023-02-19T14:31:29;1.33;;;0.50;;
64842;SDS011;51310;52.198;5.422;2023-02-19T14:34:03;0.75;;;0.45;;
64842;SDS011;51310;52.198;5.422;2023-02-19T14:36:45;1.00;;;0.50;;
64842;SDS011;51310;52.198;5.422;2023-02-19T14:39:39;2.25;;;0.80;;
64842;SDS011;51310;52.198;5.422;2023-02-19T14:42:13;2.03;;;0.70;;
64842;SDS011;51310;52.198;5.422;2023-02-19T14:44:50;1.23;;;0.60;;
64842;SDS011;51310;52.198;5.422;2023-02-19T14:47:23;1.45;;;0.50;;
64842;SDS011;51310;52.198;5.422;2023-02-19T14:53:00;1.60;;;0.60;;
64842;SDS011;51310;52.198;5.422;2023-02-19T14:55:35;2.30;;;0.60;;
64842;SDS011;51310;52.198;5.422;2023-02-19T14:58:05;1.90;;;0.82;;
64842;SDS011;51310;52.198;5.422;2023-02-19T15:00:38;0.73;;;0.43;;
64842;SDS011;51310;52.198;5.422;2023-02-19T15:03:21;1.23;;;0.52;;
64842;SDS011;51310;52.198;5.422;2023-02-19T15:05:56;0.95;;;0.50;;
64842;SDS011;51310;52.198;5.422;2023-02-19T15:08:32;1.73;;;0.50;;
64842;SDS011;51310;52.198;5.422;2023-02-19T15:11:08;1.83;;;0.57;;
64842;SDS011;51310;52.198;5.422;2023-02-19T15:13:42;1.35;;;0.75;;
64842;SDS011;51310;52.198;5.422;2023-02-19T15:16:16;2.90;;;0.80;;
64842;SDS011;51310;52.198;5.422;2023-02-19T15:18:44;0.80;;;0.60;;
64842;SDS011;51310;52.198;5.422;2023-02-19T15:21:29;1.98;;;0.60;;
64842;SDS011;51310;52.198;5.422;2023-02-19T15:24:04;0.95;;;0.60;;
64842;SDS011;51310;52.198;5.422;2023-02-19T15:26:37;1.70;;;0.80;;
64842;SDS011;51310;52.198;5.422;2023-02-19T15:29:10;2.10;;;0.90;;
64842;SDS011;51310;52.198;5.422;2023-02-19T15:31:45;1.13;;;0.82;;
64842;SDS011;51310;52.198;5.422;2023-02-19T15:34:20;13.47;;;1.17;;
64842;SDS011;51310;52.198;5.422;2023-02-19T15:36:51;3.27;;;1.10;;
64842;SDS011;51310;52.198;5.422;2023-02-19T15:39:25;2.30;;;1.10;;
64842;SDS011;51310;52.198;5.422;2023-02-19T15:42:08;2.63;;;1.10;;
64842;SDS011;51310;52.198;5.422;2023-02-19T15:44:46;2.60;;;1.13;;
64842;SDS011;51310;52.198;5.422;2023-02-19T15:50:13;1.42;;;0.93;;
64842;SDS011;51310;52.198;5.422;2023-02-19T15:55:21;3.15;;;1.17;;
64842;SDS011;51310;52.198;5.422;2023-02-19T15:57:53;2.75;;;1.10;;
64842;SDS011;51310;52.198;5.422;2023-02-19T16:00:44;4.50;;;1.42;;
64842;SDS011;51310;52.198;5.422;2023-02-19T16:03:38;3.13;;;1.40;;
64842;SDS011;51310;52.198;5.422;2023-02-19T16:06:05;2.45;;;1.30;;
64842;SDS011;51310;52.198;5.422;2023-02-19T16:08:40;2.88;;;1.02;;
64842;SDS011;51310;52.198;5.422;2023-02-19T16:14:14;2.27;;;1.23;;
64842;SDS011;51310;52.198;5.422;2023-02-19T16:16:42;3.05;;;1.30;;
64842;SDS011;51310;52.198;5.422;2023-02-19T16:19:12;3.38;;;1.30;;
64842;SDS011;51310;52.198;5.422;2023-02-19T16:21:54;2.38;;;1.25;;
64842;SDS011;51310;52.198;5.422;2023-02-19T16:24:26;3.00;;;1.50;;
64842;SDS011;51310;52.198;5.422;2023-02-19T16:27:00;2.90;;;1.75;;
64842;SDS011;51310;52.198;5.422;2023-02-19T16:29:31;2.90;;;1.83;;
64842;SDS011;51310;52.198;5.422;2023-02-19T16:31:59;6.57;;;1.90;;
64842;SDS011;51310;52.198;5.422;2023-02-19T16:42:33;3.53;;;2.72;;
64842;SDS011;51310;52.198;5.422;2023-02-19T16:45:36;3.63;;;1.90;;
64842;SDS011;51310;52.198;5.422;2023-02-19T16:48:06;4.38;;;2.15;;
64842;SDS011;51310;52.198;5.422;2023-02-19T16:50:34;4.80;;;2.60;;
64842;SDS011;51310;52.198;5.422;2023-02-19T16:53:01;3.30;;;2.60;;
64842;SDS011;51310;52.198;5.422;2023-02-19T16:55:28;5.38;;;2.78;;
64842;SDS011;51310;52.198;5.422;2023-02-19T16:57:58;4.57;;;2.70;;
64842;SDS011;51310;52.198;5.422;2023-02-19T17:00:29;6.25;;;2.95;;
64842;SDS011;51310;52.198;5.422;2023-02-19T17:02:57;5.88;;;3.25;;
64842;SDS011;51310;52.198;5.422;2023-02-19T17:05:32;8.25;;;3.70;;
64842;SDS011;51310;52.198;5.422;2023-02-19T17:08:02;5.50;;;3.60;;
64842;SDS011;51310;52.198;5.422;2023-02-19T17:10:58;5.50;;;3.22;;
64842;SDS011;51310;52.198;5.422;2023-02-19T17:13:27;5.40;;;3.65;;
64842;SDS011;51310;52.198;5.422;2023-02-19T17:15:53;6.40;;;4.05;;
64842;SDS011;51310;52.198;5.422;2023-02-19T17:18:20;8.50;;;3.83;;
64842;SDS011;51310;52.198;5.422;2023-02-19T17:20:49;6.22;;;3.08;;
64842;SDS011;51310;52.198;5.422;2023-02-19T17:23:41;5.30;;;2.75;;
64842;SDS011;51310;52.198;5.422;2023-02-19T17:26:09;6.03;;;3.20;;
64842;SDS011;51310;52.198;5.422;2023-02-19T17:28:42;4.70;;;3.08;;
64842;SDS011;51310;52.198;5.422;2023-02-19T17:31:11;6.03;;;3.63;;
64842;SDS011;51310;52.198;5.422;2023-02-19T17:33:40;5.50;;;3.40;;
64842;SDS011;51310;52.198;5.422;2023-02-19T17:36:07;4.30;;;2.88;;
64842;SDS011;51310;52.198;5.422;2023-02-19T17:38:44;4.45;;;3.13;;
64842;SDS011;51310;52.198;5.422;2023-02-19T17:41:10;4.85;;;2.88;;
64842;SDS011;51310;52.198;5.422;2023-02-19T17:43:36;4.70;;;2.70;;
64842;SDS011;51310;52.198;5.422;2023-02-19T17:46:02;4.40;;;2.70;;
64842;SDS011;51310;52.198;5.422;2023-02-19T17:48:28;7.13;;;2.97;;
64842;SDS011;51310;52.198;5.422;2023-02-19T17:50:54;6.18;;;3.33;;